Glasgow, Montana
Current Conditions -  °F | °C
As of 5:53 PM on Wednesday 22 Oct 2014 (Local Time) from KGGW Reporting Station
Clear Clear  
Wind Chill: 55°   Ceiling: Unl
Heat Index: 55°   Visibility: 10mi
Dew Point: 32°   Wind: 8mph
Humidity: 42%   Direction: 250°WSW
Pressure: 29.85"   Gusts: NA
Location:  48.2°N, 106.64°W
Report Text: KGGW 222353Z AUTO 25007KT 10SM CLR 13/00 A2985 RMK AO2 SLP112 T01280000 10178 20128 53002
Loading
Personal Weather Stations






























Interactive Weather Map
Tropical Storm Tracking
New forecast layout! Learn more

10-Day Weather Forecast

Advertisements
Track Severe Weather on mobile